Time;durP1;ratioP1;P1;durP2;ratioP2;P2;SDS_P1;SDS_P2;PMS_P1;PMS_P2;Temp;Humidity;BMP_temperature;BMP_pressure;BME280_temperature;BME280_humidity;BME280_pressure;Samples;Min_cycle;Max_cycle;Signal;HPM_P1;HPM_P2
2021/07/14 00:00:53;;;;;;;51.97;39.03;;;20.00;91.40;;;;;;5076135;28;20165;-81
2021/07/14 00:03:19;;;;;;;43.50;35.85;;;19.90;91.40;;;;;;5095210;28;20105;-82
2021/07/14 00:05:44;;;;;;;47.60;36.20;;;19.90;91.40;;;;;;5094477;28;20028;-81
2021/07/14 00:08:10;;;;;;;52.25;39.55;;;20.00;91.40;;;;;;5098244;28;20032;-81
2021/07/14 00:10:36;;;;;;;52.03;38.67;;;19.90;91.40;;;;;;5083279;28;20032;-81
2021/07/14 00:13:11;;;;;;;49.10;36.60;;;19.90;91.40;;;;;;5077819;28;20043;-81
2021/07/14 00:23:34;;;;;;;42.35;32.42;;;19.90;91.50;;;;;;5093314;28;20120;-80
2021/07/14 00:26:00;;;;;;;44.08;34.65;;;19.90;91.40;;;;;;5092505;28;20024;-80
2021/07/14 00:28:26;;;;;;;46.28;35.75;;;19.90;91.40;;;;;;5075350;28;20082;-80
2021/07/14 00:30:55;;;;;;;52.28;38.88;;;19.90;91.50;;;;;;5092810;28;20103;-80
2021/07/14 00:33:21;;;;;;;50.70;37.72;;;19.90;91.50;;;;;;5093019;28;20052;-80
2021/07/14 00:35:47;;;;;;;47.70;35.65;;;19.80;91.60;;;;;;5092643;28;20020;-80
2021/07/14 00:38:13;;;;;;;50.30;38.22;;;19.80;91.60;;;;;;5076012;28;20125;-81
2021/07/14 00:40:39;;;;;;;51.42;38.10;;;19.80;91.70;;;;;;5092449;28;20473;-81
2021/07/14 00:43:05;;;;;;;51.13;36.25;;;19.80;91.70;;;;;;5092538;28;20063;-81
2021/07/14 00:45:30;;;;;;;49.80;38.65;;;19.80;91.70;;;;;;5092518;28;20024;-82
2021/07/14 00:47:58;;;;;;;50.90;37.92;;;19.80;91.80;;;;;;5093285;28;20072;-85
2021/07/14 00:50:24;;;;;;;48.67;37.42;;;19.80;91.80;;;;;;5094343;28;20098;-84
2021/07/14 00:52:50;;;;;;;55.03;40.25;;;19.80;91.80;;;;;;5060555;28;20133;-85
2021/07/14 00:55:15;;;;;;;49.92;37.45;;;19.80;91.80;;;;;;5076320;28;20362;-85
2021/07/14 00:57:41;;;;;;;49.65;36.92;;;19.70;91.80;;;;;;5092612;28;20031;-83
2021/07/14 01:00:10;;;;;;;45.78;34.20;;;19.70;91.90;;;;;;5092546;28;20039;-81
2021/07/14 01:02:36;;;;;;;51.63;36.50;;;19.70;91.90;;;;;;5092287;28;20115;-84
2021/07/14 01:05:20;;;;;;;47.42;36.05;;;19.80;91.90;;;;;;5093335;28;20506;-82
2021/07/14 01:07:56;;;;;;;46.70;34.67;;;19.70;91.90;;;;;;5095655;28;20333;-83
2021/07/14 01:10:36;;;;;;;47.53;33.92;;;19.70;91.90;;;;;;5103126;28;20047;-83
2021/07/14 01:13:34;;;;;;;53.78;38.10;;;19.70;91.90;;;;;;5103811;28;20092;-82
2021/07/14 01:16:11;;;;;;;48.53;36.65;;;19.70;91.90;;;;;;5105455;28;20025;-82
2021/07/14 01:18:47;;;;;;;50.78;36.47;;;19.70;92.00;;;;;;5103158;28;20020;-83
2021/07/14 01:21:19;;;;;;;52.83;37.05;;;19.70;92.00;;;;;;5108892;28;20020;-80
2021/07/14 01:24:07;;;;;;;47.60;34.92;;;19.70;92.00;;;;;;5106354;28;20030;-83
2021/07/14 01:26:54;;;;;;;53.90;39.13;;;19.70;92.00;;;;;;5101456;28;20020;-81
2021/07/14 01:29:21;;;;;;;53.22;37.03;;;19.70;92.00;;;;;;5104067;28;20115;-82
2021/07/14 01:31:50;;;;;;;57.95;39.53;;;19.70;92.10;;;;;;5104955;28;20041;-82
2021/07/14 01:34:18;;;;;;;50.70;37.17;;;19.70;92.10;;;;;;5100930;28;20368;-81
2021/07/14 01:36:46;;;;;;;58.65;39.40;;;19.60;92.10;;;;;;5106433;28;20059;-82
2021/07/14 01:39:14;;;;;;;53.17;36.42;;;19.70;92.10;;;;;;5105285;28;20055;-80
2021/07/14 01:41:43;;;;;;;58.85;38.22;;;19.70;92.10;;;;;;5106107;28;20053;-82
2021/07/14 01:44:11;;;;;;;53.10;37.10;;;19.70;92.10;;;;;;5100827;28;20016;-82
2021/07/14 01:46:37;;;;;;;57.17;38.92;;;19.60;92.10;;;;;;5099690;28;20024;-81
2021/07/14 01:49:11;;;;;;;55.20;37.30;;;19.60;92.10;;;;;;5081015;28;20028;-81
2021/07/14 01:51:44;;;;;;;60.95;40.30;;;19.60;92.20;;;;;;5098041;28;20032;-81
2021/07/14 01:54:13;;;;;;;50.13;37.08;;;19.50;92.20;;;;;;5096890;28;20415;-79
2021/07/14 01:56:40;;;;;;;52.20;38.55;;;19.50;92.20;;;;;;5100462;28;20119;-80
2021/07/14 01:59:08;;;;;;;52.00;36.67;;;19.50;92.20;;;;;;5097112;28;20032;-81
2021/07/14 02:01:39;;;;;;;54.55;37.63;;;19.50;92.30;;;;;;5083399;28;20062;-81
2021/07/14 02:06:50;;;;;;;62.67;38.60;;;19.50;92.30;;;;;;5103605;28;20047;-81
2021/07/14 02:09:17;;;;;;;57.47;39.33;;;19.50;92.30;;;;;;5080842;28;20387;-80
2021/07/14 02:11:47;;;;;;;52.83;36.58;;;19.50;92.40;;;;;;5097504;28;20067;-80
2021/07/14 02:14:20;;;;;;;53.83;37.30;;;19.50;92.40;;;;;;5097910;28;20028;-82
2021/07/14 02:16:47;;;;;;;;;;;19.50;92.40;;;;;;5098018;28;20421;-82
2021/07/14 02:19:16;;;;;;;51.63;35.17;;;19.50;92.40;;;;;;5095585;28;19992;-82
2021/07/14 02:21:42;;;;;;;53.70;36.92;;;19.40;92.40;;;;;;5096801;28;20028;-82
2021/07/14 02:24:12;;;;;;;57.78;38.42;;;19.40;92.40;;;;;;5078851;28;20404;-81
2021/07/14 02:26:40;;;;;;;52.60;36.10;;;19.40;92.40;;;;;;5095562;28;20020;-82
2021/07/14 02:29:06;;;;;;;65.43;42.15;;;19.50;92.40;;;;;;5096759;28;20057;-81
2021/07/14 02:31:32;;;;;;;53.60;37.42;;;19.50;92.40;;;;;;5095685;28;20024;-81
2021/07/14 02:33:58;;;;;;;51.03;35.95;;;19.40;92.40;;;;;;5097187;28;20024;-82
2021/07/14 02:36:26;;;;;;;56.13;38.17;;;19.50;92.40;;;;;;5096132;28;20132;-80
2021/07/14 02:38:57;;;;;;;56.80;38.33;;;19.50;92.40;;;;;;5096234;28;20020;-82
2021/07/14 02:41:29;;;;;;;51.42;36.25;;;19.40;92.40;;;;;;5095163;28;20472;-80
2021/07/14 02:44:08;;;;;;;52.58;35.20;;;19.40;92.50;;;;;;5096974;28;20032;-83
2021/07/14 02:46:41;;;;;;;52.03;34.75;;;19.40;92.50;;;;;;5096372;28;20020;-82
2021/07/14 02:49:10;;;;;;;57.60;39.20;;;19.40;92.50;;;;;;5099515;28;20024;-83
2021/07/14 02:51:38;;;;;;;53.33;36.42;;;19.50;92.40;;;;;;5095096;28;20390;-82
2021/07/14 02:54:28;;;;;;;53.50;37.30;;;19.50;92.40;;;;;;5079434;28;20024;-82
2021/07/14 02:57:01;;;;;;;50.50;35.33;;;19.50;92.50;;;;;;5099565;28;20028;-83
2021/07/14 02:59:35;;;;;;;55.05;37.03;;;19.40;92.50;;;;;;5095441;28;20107;-80
2021/07/14 03:02:02;;;;;;;51.78;35.30;;;19.50;92.50;;;;;;5095984;28;20048;-81
2021/07/14 03:04:36;;;;;;;49.53;33.22;;;19.40;92.40;;;;;;5094776;28;20024;-81
2021/07/14 03:07:08;;;;;;;51.83;37.10;;;19.40;92.50;;;;;;5096140;28;20024;-83
2021/07/14 03:09:39;;;;;;;52.30;32.67;;;19.40;92.50;;;;;;5095196;28;20461;-79
2021/07/14 03:12:07;;;;;;;50.10;33.88;;;19.40;92.50;;;;;;5096015;28;20111;-79
2021/07/14 03:14:36;;;;;;;49.08;33.65;;;19.40;92.50;;;;;;5096571;28;20042;-79
2021/07/14 03:17:03;;;;;;;50.10;35.35;;;19.50;92.50;;;;;;5095459;28;20089;-80
2021/07/14 03:19:31;;;;;;;49.63;32.80;;;19.50;92.50;;;;;;5094149;28;20391;-80
2021/07/14 03:21:57;;;;;;;46.78;34.22;;;19.50;92.50;;;;;;5096049;28;20028;-80
2021/07/14 03:24:24;;;;;;;43.60;31.27;;;19.40;92.50;;;;;;5100013;28;20337;-78
2021/07/14 03:26:50;;;;;;;47.70;34.00;;;19.40;92.50;;;;;;5099920;28;20016;-81
2021/07/14 03:29:17;;;;;;;48.33;32.63;;;19.40;92.40;;;;;;5080119;28;20039;-81
2021/07/14 03:31:44;;;;;;;42.55;30.95;;;19.40;92.50;;;;;;5078626;28;20494;-81
2021/07/14 03:34:10;;;;;;;54.50;36.45;;;19.40;92.50;;;;;;5096936;28;20465;-78
2021/07/14 03:36:36;;;;;;;43.28;31.08;;;19.40;92.40;;;;;;5095848;28;20116;-80
2021/07/14 03:39:04;;;;;;;47.17;34.28;;;19.40;92.50;;;;;;5079425;28;20032;-79
2021/07/14 03:41:30;;;;;;;50.05;33.38;;;19.40;92.50;;;;;;5095024;28;20502;-80
2021/07/14 03:43:57;;;;;;;49.40;32.75;;;19.30;92.50;;;;;;5094777;28;20052;-80
2021/07/14 03:46:24;;;;;;;43.55;31.67;;;19.30;92.50;;;;;;5094380;28;20028;-80
2021/07/14 03:48:52;;;;;;;43.20;31.95;;;19.30;92.50;;;;;;5096392;28;20020;-80
2021/07/14 03:51:18;;;;;;;45.70;32.63;;;19.30;92.50;;;;;;5097352;28;20490;-80
2021/07/14 03:53:45;;;;;;;48.42;34.40;;;19.30;92.50;;;;;;5096181;28;20020;-81
2021/07/14 03:56:12;;;;;;;46.13;32.38;;;19.30;92.50;;;;;;5097806;28;20062;-81
2021/07/14 03:58:38;;;;;;;43.17;31.40;;;19.30;92.60;;;;;;5096155;28;20035;-81
2021/07/14 04:01:04;;;;;;;40.65;29.25;;;19.30;92.60;;;;;;5096856;28;20024;-80
2021/07/14 04:03:31;;;;;;;44.53;31.52;;;19.30;92.60;;;;;;5080159;28;20376;-81
2021/07/14 04:06:02;;;;;;;43.67;30.52;;;19.30;92.60;;;;;;5080771;28;20405;-81
2021/07/14 04:08:58;;;;;;;46.05;32.25;;;19.30;92.60;;;;;;5098939;28;20456;-82
2021/07/14 04:11:24;;;;;;;44.40;30.95;;;19.30;92.60;;;;;;5083795;28;20048;-81
2021/07/14 04:13:49;;;;;;;41.88;30.38;;;19.30;92.60;;;;;;5081152;28;20036;-80
2021/07/14 04:16:15;;;;;;;46.28;31.63;;;19.30;92.60;;;;;;5095476;28;20035;-81
2021/07/14 04:18:41;;;;;;;41.03;30.17;;;19.30;92.60;;;;;;5094923;28;20438;-80
2021/07/14 04:21:06;;;;;;;40.53;29.50;;;19.30;92.60;;;;;;5093337;28;20028;-81
2021/07/14 04:23:32;;;;;;;41.05;28.83;;;19.30;92.60;;;;;;5093788;28;20115;-82
2021/07/14 04:25:58;;;;;;;41.03;28.85;;;19.30;92.60;;;;;;5076976;28;20024;-80
2021/07/14 04:28:25;;;;;;;40.22;28.10;;;19.30;92.60;;;;;;5094695;28;20123;-81
2021/07/14 04:30:50;;;;;;;39.10;28.20;;;19.30;92.60;;;;;;5076968;28;20035;-82
2021/07/14 04:33:16;;;;;;;43.17;29.33;;;19.30;92.60;;;;;;5093554;28;20360;-81
2021/07/14 04:35:41;;;;;;;32.42;24.77;;;19.30;92.60;;;;;;5093945;28;20035;-80
2021/07/14 04:38:07;;;;;;;37.78;27.17;;;19.30;92.60;;;;;;5093427;28;20024;-82
2021/07/14 04:40:34;;;;;;;33.00;24.80;;;19.30;92.60;;;;;;5093438;28;20107;-82
2021/07/14 04:43:00;;;;;;;32.92;23.85;;;19.30;92.60;;;;;;5077153;28;20058;-82
2021/07/14 04:45:25;;;;;;;29.55;21.98;;;19.30;92.60;;;;;;5077890;28;20024;-82
2021/07/14 04:47:51;;;;;;;29.70;21.98;;;19.30;92.50;;;;;;5094373;28;20475;-82
2021/07/14 04:50:17;;;;;;;27.55;20.77;;;19.40;92.60;;;;;;5095448;28;20497;-82
2021/07/14 04:52:42;;;;;;;29.40;22.83;;;19.40;92.50;;;;;;5063357;28;20513;-81
2021/07/14 04:55:09;;;;;;;34.20;23.63;;;19.30;92.50;;;;;;5097250;28;20054;-83
2021/07/14 04:57:35;;;;;;;32.08;22.88;;;19.30;92.50;;;;;;5080980;28;20043;-83
2021/07/14 05:00:01;;;;;;;31.52;22.13;;;19.30;92.60;;;;;;5099160;28;20047;-83
2021/07/14 05:02:27;;;;;;;28.90;21.13;;;19.30;92.60;;;;;;5092726;28;20056;-83
2021/07/14 05:04:53;;;;;;;29.00;21.83;;;19.30;92.70;;;;;;5097135;28;20103;-83
2021/07/14 05:07:18;;;;;;;29.33;22.00;;;19.30;92.70;;;;;;5098903;28;20054;-83
2021/07/14 05:09:44;;;;;;;30.23;21.67;;;19.30;92.70;;;;;;5078606;28;20364;-81
2021/07/14 05:12:09;;;;;;;28.42;22.08;;;19.20;92.70;;;;;;5095002;28;20115;-81
2021/07/14 05:14:35;;;;;;;28.73;19.90;;;19.20;92.70;;;;;;5081555;28;20036;-81
2021/07/14 05:17:01;;;;;;;26.50;20.00;;;19.20;92.70;;;;;;5097293;28;20032;-79
2021/07/14 05:19:26;;;;;;;24.08;19.23;;;19.30;92.70;;;;;;5077670;28;20039;-80
2021/07/14 05:21:52;;;;;;;25.63;19.67;;;19.30;92.70;;;;;;5077146;28;20487;-81
2021/07/14 05:24:18;;;;;;;26.30;19.05;;;19.30;92.70;;;;;;5094469;28;20464;-80
2021/07/14 05:26:43;;;;;;;26.98;20.48;;;19.30;92.70;;;;;;5095741;28;20062;-81
2021/07/14 05:29:09;;;;;;;28.83;20.33;;;19.30;92.70;;;;;;5093730;28;20027;-81
2021/07/14 05:31:35;;;;;;;26.98;20.95;;;19.30;92.70;;;;;;5092634;28;20031;-81
2021/07/14 05:34:00;;;;;;;27.77;20.80;;;19.30;92.70;;;;;;5091893;28;20139;-80
2021/07/14 05:36:26;;;;;;;30.23;20.75;;;19.30;92.70;;;;;;5092998;28;20029;-80
2021/07/14 05:38:52;;;;;;;26.45;21.00;;;19.30;92.70;;;;;;5093096;28;20059;-82
2021/07/14 05:41:17;;;;;;;26.80;21.20;;;19.30;92.70;;;;;;5093202;28;20070;-80
2021/07/14 05:43:43;;;;;;;26.30;19.80;;;19.30;92.70;;;;;;5093947;28;20030;-81
2021/07/14 05:46:09;;;;;;;23.92;18.88;;;19.30;92.80;;;;;;5091912;28;20052;-80
2021/07/14 05:48:35;;;;;;;23.02;18.05;;;19.30;92.80;;;;;;5091722;28;20039;-79
2021/07/14 05:51:00;;;;;;;24.00;18.13;;;19.30;92.80;;;;;;5074977;28;20536;-78
2021/07/14 05:53:27;;;;;;;24.23;19.58;;;19.30;92.80;;;;;;5091991;28;20483;-81
2021/07/14 05:55:53;;;;;;;23.77;18.92;;;19.30;92.80;;;;;;5093589;28;20036;-81
2021/07/14 05:58:18;;;;;;;21.83;18.23;;;19.30;92.80;;;;;;5093604;28;20028;-80
2021/07/14 06:00:44;;;;;;;19.83;17.52;;;19.40;92.80;;;;;;5076047;28;20426;-80
2021/07/14 06:03:10;;;;;;;23.17;18.27;;;19.40;92.80;;;;;;5094300;28;20058;-80
2021/07/14 06:05:37;;;;;;;22.98;18.85;;;19.40;92.80;;;;;;5092642;28;20035;-80
2021/07/14 06:08:03;;;;;;;19.85;17.75;;;19.40;92.80;;;;;;5092003;28;20123;-80
2021/07/14 06:10:29;;;;;;;23.00;18.17;;;19.40;92.80;;;;;;5075341;28;20040;-80
2021/07/14 06:12:59;;;;;;;22.10;17.25;;;19.40;92.80;;;;;;5091839;28;20031;-80
2021/07/14 06:15:26;;;;;;;18.88;16.80;;;19.40;92.70;;;;;;5093248;28;20059;-80
2021/07/14 06:17:52;;;;;;;20.38;17.33;;;19.40;92.70;;;;;;5095078;28;20024;-79
2021/07/14 06:20:19;;;;;;;17.63;15.77;;;19.40;92.80;;;;;;5095949;28;20526;-81
2021/07/14 06:22:44;;;;;;;22.33;15.77;;;19.40;92.80;;;;;;5096396;28;20474;-81
2021/07/14 06:25:12;;;;;;;22.60;17.60;;;19.40;92.80;;;;;;5078816;28;20028;-81
2021/07/14 06:27:41;;;;;;;23.35;18.23;;;19.40;92.80;;;;;;5096756;28;20032;-81
2021/07/14 06:30:09;;;;;;;22.17;18.38;;;19.40;92.80;;;;;;5094990;28;20028;-81
2021/07/14 06:32:38;;;;;;;22.08;19.33;;;19.40;92.80;;;;;;5095469;28;20505;-80
2021/07/14 06:35:06;;;;;;;28.30;21.90;;;19.40;92.80;;;;;;5096097;28;20051;-81
2021/07/14 06:37:32;;;;;;;28.52;21.05;;;19.50;92.70;;;;;;5096840;28;20104;-81
2021/07/14 06:39:58;;;;;;;26.02;20.63;;;19.50;92.70;;;;;;5096067;28;20463;-83
2021/07/14 06:42:23;;;;;;;26.38;20.92;;;19.50;92.70;;;;;;5096889;28;20097;-80
2021/07/14 06:44:49;;;;;;;29.77;22.20;;;19.50;92.70;;;;;;5078133;28;20340;-81
2021/07/14 06:47:16;;;;;;;29.05;21.98;;;19.50;92.70;;;;;;5078394;28;20070;-82
2021/07/14 06:49:42;;;;;;;35.38;22.95;;;19.50;92.70;;;;;;5078095;28;20032;-78
2021/07/14 06:52:08;;;;;;;26.90;22.10;;;19.50;92.70;;;;;;5077919;28;20085;-81
2021/07/14 06:54:34;;;;;;;24.00;21.23;;;19.40;92.70;;;;;;5061103;28;20032;-82
2021/07/14 06:57:00;;;;;;;29.65;21.98;;;19.50;92.70;;;;;;5094585;28;20123;-82
2021/07/14 06:59:26;;;;;;;26.27;20.75;;;19.50;92.70;;;;;;5077917;28;20067;-80
2021/07/14 07:01:51;;;;;;;26.02;19.85;;;19.50;92.60;;;;;;5060607;28;20575;-80
2021/07/14 07:04:17;;;;;;;24.00;19.73;;;19.50;92.70;;;;;;5078362;28;20098;-78
2021/07/14 07:06:43;;;;;;;23.88;20.25;;;19.40;92.60;;;;;;5078175;28;20059;-78
2021/07/14 07:09:09;;;;;;;24.17;21.02;;;19.50;92.70;;;;;;5095095;28;20035;-80
2021/07/14 07:11:36;;;;;;;27.27;21.50;;;19.50;92.60;;;;;;5094638;28;20111;-80
2021/07/14 07:14:04;;;;;;;27.45;21.75;;;19.40;92.60;;;;;;5095458;28;20020;-78
2021/07/14 07:16:31;;;;;;;27.35;22.40;;;19.40;92.60;;;;;;5096288;28;20116;-78
2021/07/14 07:18:57;;;;;;;28.13;22.75;;;19.40;92.70;;;;;;5096172;28;20117;-80
2021/07/14 07:21:23;;;;;;;29.10;23.60;;;19.40;92.60;;;;;;5094185;28;20024;-78
2021/07/14 07:23:49;;;;;;;29.67;24.15;;;19.40;92.70;;;;;;5094352;28;20022;-79
2021/07/14 07:26:15;;;;;;;30.35;23.75;;;19.40;92.70;;;;;;5095760;28;20111;-81
2021/07/14 07:28:42;;;;;;;28.17;23.65;;;19.40;92.70;;;;;;5076580;28;20024;-79
2021/07/14 07:31:09;;;;;;;30.73;24.33;;;19.50;92.60;;;;;;5094618;28;20024;-82
2021/07/14 07:33:36;;;;;;;32.20;24.17;;;19.50;92.60;;;;;;5095097;28;20054;-81
2021/07/14 07:36:05;;;;;;;30.27;23.88;;;19.50;92.50;;;;;;5095603;28;20051;-82
2021/07/14 07:38:37;;;;;;;31.90;24.58;;;19.50;92.50;;;;;;5093624;28;20472;-79
2021/07/14 07:41:05;;;;;;;30.15;24.10;;;19.60;92.50;;;;;;5077714;28;20036;-79
2021/07/14 07:43:31;;;;;;;31.63;25.27;;;19.60;92.50;;;;;;5095312;28;20031;-80
2021/07/14 07:45:57;;;;;;;28.75;24.48;;;19.60;92.60;;;;;;5077467;28;20024;-79
2021/07/14 07:48:23;;;;;;;30.77;23.90;;;19.60;92.40;;;;;;5093897;28;20024;-81
2021/07/14 07:50:49;;;;;;;30.17;24.92;;;19.60;92.40;;;;;;5094687;28;20024;-80
2021/07/14 07:53:17;;;;;;;29.55;24.52;;;19.70;92.40;;;;;;5093363;28;20040;-81
2021/07/14 07:55:44;;;;;;;27.70;21.88;;;19.80;92.30;;;;;;5077318;28;20071;-81
2021/07/14 07:58:10;;;;;;;27.23;22.63;;;19.80;92.20;;;;;;5094065;28;20379;-84
2021/07/14 08:00:36;;;;;;;27.33;22.90;;;19.80;92.20;;;;;;5093986;28;20062;-83
2021/07/14 08:03:02;;;;;;;26.67;22.92;;;19.90;92.20;;;;;;5076886;28;20048;-82
2021/07/14 08:05:29;;;;;;;25.42;19.85;;;19.90;92.10;;;;;;5094679;28;20021;-81
2021/07/14 08:07:55;;;;;;;25.25;21.92;;;19.90;92.10;;;;;;5101996;28;20373;-80
2021/07/14 08:10:21;;;;;;;24.67;20.25;;;20.00;92.00;;;;;;5094354;28;20422;-82
2021/07/14 08:12:46;;;;;;;24.45;20.13;;;20.10;92.00;;;;;;5100475;28;20096;-81
2021/07/14 08:15:13;;;;;;;22.90;18.55;;;20.10;91.90;;;;;;5099886;28;20106;-83
2021/07/14 08:17:40;;;;;;;24.95;19.75;;;20.10;91.90;;;;;;5103454;28;20028;-82
2021/07/14 08:20:07;;;;;;;22.23;18.75;;;20.00;91.80;;;;;;5102726;28;20035;-83
2021/07/14 08:22:33;;;;;;;21.75;18.23;;;20.00;91.90;;;;;;5108508;28;20046;-83
2021/07/14 08:24:59;;;;;;;22.70;19.25;;;20.00;91.80;;;;;;5110462;28;20024;-84
2021/07/14 08:27:25;;;;;;;24.83;20.00;;;19.90;91.80;;;;;;5094878;28;20024;-85
2021/07/14 08:30:00;;;;;;;26.30;21.13;;;19.90;91.80;;;;;;5112097;28;20054;-82
2021/07/14 08:32:29;;;;;;;25.90;21.90;;;19.90;91.80;;;;;;5086081;28;20028;-84
2021/07/14 08:34:56;;;;;;;28.13;20.50;;;19.90;91.80;;;;;;5094640;28;20024;-84
2021/07/14 08:37:22;;;;;;;25.35;20.40;;;19.80;91.80;;;;;;5078208;28;20020;-85
2021/07/14 08:39:50;;;;;;;27.02;22.00;;;19.80;91.90;;;;;;5093962;28;20103;-84
2021/07/14 08:42:17;;;;;;;26.50;20.60;;;19.80;91.90;;;;;;5076407;28;20028;-86
2021/07/14 08:44:43;;;;;;;30.70;23.08;;;19.80;91.90;;;;;;5094178;28;20024;-81
2021/07/14 08:47:09;;;;;;;29.40;22.10;;;19.80;91.90;;;;;;5093950;28;20085;-81
2021/07/14 08:49:37;;;;;;;28.55;23.02;;;19.90;91.90;;;;;;5093848;28;20520;-82
2021/07/14 08:52:03;;;;;;;30.13;22.88;;;19.80;91.80;;;;;;5092924;28;20020;-81
2021/07/14 08:54:29;;;;;;;32.13;22.65;;;19.90;91.90;;;;;;5092354;28;20035;-84
2021/07/14 08:56:55;;;;;;;32.10;23.30;;;19.80;91.80;;;;;;5093784;28;20406;-81
2021/07/14 08:59:21;;;;;;;30.65;21.80;;;19.80;91.80;;;;;;5093430;28;20110;-79
2021/07/14 09:01:48;;;;;;;27.98;20.67;;;19.80;91.90;;;;;;5075806;28;20093;-80
2021/07/14 09:04:14;;;;;;;28.85;22.10;;;19.80;91.90;;;;;;5093021;28;20024;-80
2021/07/14 09:06:40;;;;;;;28.60;21.48;;;19.80;91.80;;;;;;5092920;28;20035;-80
2021/07/14 09:09:06;;;;;;;27.60;21.77;;;19.80;91.80;;;;;;5075941;28;20042;-80
2021/07/14 09:11:57;;;;;;;28.83;22.08;;;19.80;91.80;;;;;;5094226;28;20028;-79
2021/07/14 09:14:27;;;;;;;24.23;19.35;;;19.80;91.80;;;;;;5092816;28;20024;-79
2021/07/14 09:16:53;;;;;;;26.23;20.48;;;19.80;91.80;;;;;;5092667;28;20120;-80
2021/07/14 09:19:26;;;;;;;25.13;19.23;;;19.80;91.70;;;;;;5094452;28;20063;-82
2021/07/14 09:21:53;;;;;;;25.17;19.27;;;19.80;91.70;;;;;;5093991;28;20150;-81
2021/07/14 09:24:31;;;;;;;25.90;18.63;;;19.70;91.70;;;;;;5093210;28;20024;-81
2021/07/14 09:26:58;;;;;;;27.30;20.88;;;19.60;91.70;;;;;;5093188;28;20051;-80
2021/07/14 09:29:25;;;;;;;25.15;20.13;;;19.60;91.80;;;;;;5093103;28;20173;-80
2021/07/14 09:31:51;;;;;;;28.95;20.95;;;19.50;91.80;;;;;;5092221;28;20144;-80
2021/07/14 09:34:26;;;;;;;27.60;21.40;;;19.50;91.80;;;;;;5093203;28;20115;-80
2021/07/14 09:37:01;;;;;;;26.77;21.08;;;19.40;91.90;;;;;;5092183;28;20032;-80
2021/07/14 09:39:38;;;;;;;29.80;23.23;;;19.40;91.90;;;;;;5092765;28;20028;-78
2021/07/14 09:42:10;;;;;;;28.30;22.35;;;19.40;91.90;;;;;;5092063;28;20144;-79
2021/07/14 09:44:47;;;;;;;28.02;21.98;;;19.40;91.90;;;;;;5093369;28;20017;-80
2021/07/14 09:47:14;;;;;;;32.40;23.35;;;19.50;91.90;;;;;;5092311;28;20024;-80
2021/07/14 09:49:40;;;;;;;34.38;25.23;;;19.40;91.80;;;;;;5092780;28;20035;-82
2021/07/14 09:52:09;;;;;;;32.10;23.92;;;19.40;91.90;;;;;;5094359;28;20479;-81
2021/07/14 09:54:35;;;;;;;32.47;24.52;;;19.30;91.90;;;;;;5096437;28;20028;-81
2021/07/14 09:57:15;;;;;;;31.17;23.80;;;19.40;91.90;;;;;;5097552;28;20494;-80
2021/07/14 09:59:42;;;;;;;35.50;24.90;;;19.40;91.90;;;;;;5096827;28;20391;-81
2021/07/14 10:02:16;;;;;;;46.20;30.90;;;19.40;91.90;;;;;;5096350;28;20055;-84
2021/07/14 10:04:44;;;;;;;37.50;25.80;;;19.40;91.80;;;;;;5081006;28;20036;-80
2021/07/14 10:07:30;;;;;;;42.78;28.38;;;19.30;91.80;;;;;;5099935;28;20081;-79
2021/07/14 10:10:09;;;;;;;37.22;25.23;;;19.30;91.70;;;;;;5098954;28;20100;-81
2021/07/14 10:12:36;;;;;;;45.28;28.63;;;19.20;91.70;;;;;;5097070;28;20028;-82
2021/07/14 10:15:13;;;;;;;39.65;28.05;;;19.20;91.80;;;;;;5098257;28;20020;-79
2021/07/14 10:17:48;;;;;;;42.08;28.65;;;19.20;91.80;;;;;;5096545;28;20032;-81
2021/07/14 10:20:29;;;;;;;37.08;26.17;;;19.30;91.80;;;;;;5096344;28;20050;-83
2021/07/14 10:23:06;;;;;;;41.08;26.50;;;19.30;91.80;;;;;;5095487;28;20063;-81
2021/07/14 10:25:35;;;;;;;39.80;25.70;;;19.30;91.80;;;;;;5097288;28;20027;-86
2021/07/14 10:28:03;;;;;;;38.58;25.88;;;19.30;91.80;;;;;;5096525;28;20024;-80
2021/07/14 10:30:30;;;;;;;45.65;28.52;;;19.30;91.80;;;;;;5097242;28;20171;-85
2021/07/14 10:32:56;;;;;;;42.08;28.65;;;19.30;91.80;;;;;;5096298;28;20049;-82
2021/07/14 10:35:31;;;;;;;46.85;29.90;;;19.30;92.00;;;;;;5080041;28;20466;-81
2021/07/14 10:37:59;;;;;;;43.95;27.55;;;19.30;91.80;;;;;;5096175;28;20070;-81
2021/07/14 10:40:26;;;;;;;41.53;26.25;;;19.30;91.80;;;;;;5098216;28;20136;-83
2021/07/14 10:42:53;;;;;;;37.28;24.80;;;19.40;91.70;;;;;;5099671;28;20043;-83
2021/07/14 10:45:19;;;;;;;44.28;27.98;;;19.40;91.70;;;;;;5085540;28;20024;-83
2021/07/14 10:47:50;;;;;;;45.33;30.38;;;19.40;91.70;;;;;;5101395;28;20474;-84
2021/07/14 10:50:18;;;;;;;43.05;27.83;;;19.30;91.80;;;;;;5099702;28;20035;-81
2021/07/14 10:52:45;;;;;;;43.13;29.13;;;19.30;91.70;;;;;;5101582;28;20025;-83
2021/07/14 10:55:17;;;;;;;47.13;29.40;;;19.30;91.90;;;;;;5099388;28;20447;-81
2021/07/14 10:57:43;;;;;;;42.75;29.15;;;19.30;91.80;;;;;;5098910;28;20032;-82
2021/07/14 11:00:10;;;;;;;44.75;30.45;;;19.30;91.80;;;;;;5096742;28;20051;-81
2021/07/14 11:02:50;;;;;;;46.38;32.08;;;19.30;91.80;;;;;;5101465;28;20067;-85
2021/07/14 11:05:47;;;;;;;41.25;29.45;;;19.30;91.80;;;;;;5103369;28;20025;-86
2021/07/14 11:08:37;;;;;;;49.70;33.13;;;19.30;91.80;;;;;;5099701;28;20032;-85
2021/07/14 11:11:03;;;;;;;43.80;29.58;;;19.40;91.70;;;;;;5099212;28;20127;-85
2021/07/14 11:13:30;;;;;;;42.90;29.83;;;19.40;91.60;;;;;;5097956;28;20039;-84
2021/07/14 11:15:58;;;;;;;46.63;30.95;;;19.50;91.60;;;;;;5098902;28;20025;-83
2021/07/14 11:18:30;;;;;;;41.17;30.27;;;19.50;91.50;;;;;;5079549;28;20406;-84
2021/07/14 11:20:57;;;;;;;41.67;29.92;;;19.50;91.50;;;;;;5101916;28;20444;-87
2021/07/14 11:23:25;;;;;;;45.83;29.85;;;19.50;91.50;;;;;;5102866;28;20073;-86
2021/07/14 11:26:02;;;;;;;42.97;31.45;;;19.50;91.50;;;;;;5102999;28;20020;-86
2021/07/14 11:28:31;;;;;;;46.95;30.73;;;19.50;91.50;;;;;;5101999;28;20023;-82
2021/07/14 11:31:06;;;;;;;49.38;31.98;;;19.50;91.60;;;;;;5101777;28;20455;-82
2021/07/14 11:33:38;;;;;;;52.25;32.72;;;19.50;91.60;;;;;;5101728;28;20020;-83
2021/07/14 11:36:09;;;;;;;47.70;31.25;;;19.50;91.60;;;;;;5103276;28;20020;-86
2021/07/14 11:38:40;;;;;;;49.05;33.92;;;19.40;91.60;;;;;;5101806;28;20032;-81
2021/07/14 11:41:21;;;;;;;48.43;33.10;;;19.40;91.60;;;;;;5101243;28;20471;-87
2021/07/14 11:43:47;;;;;;;45.92;31.67;;;19.40;91.70;;;;;;5102046;28;20137;-88
2021/07/14 11:46:16;;;;;;;46.97;32.15;;;19.40;91.80;;;;;;5084262;28;20039;-84
2021/07/14 11:48:50;;;;;;;47.28;32.13;;;19.40;91.80;;;;;;5081937;28;20039;-86
2021/07/14 11:51:15;;;;;;;49.95;33.03;;;19.40;91.80;;;;;;5101209;28;20032;-87
2021/07/14 11:53:44;;;;;;;54.70;34.50;;;19.40;91.90;;;;;;5098545;28;20034;-83
2021/07/14 11:56:17;;;;;;;49.70;33.67;;;19.40;91.90;;;;;;5100466;28;20043;-84
2021/07/14 11:58:44;;;;;;;49.30;32.15;;;19.40;91.90;;;;;;5104494;28;20024;-84
2021/07/14 12:01:10;;;;;;;42.92;30.27;;;19.40;91.90;;;;;;5104393;28;20032;-86
2021/07/14 12:03:36;;;;;;;53.05;33.67;;;19.40;91.90;;;;;;5103480;28;20044;-86
2021/07/14 12:06:22;;;;;;;48.05;30.17;;;19.50;91.90;;;;;;5106324;28;20069;-87
2021/07/14 12:08:48;;;;;;;42.97;29.73;;;19.60;91.80;;;;;;5088589;28;20172;-84
2021/07/14 12:11:20;;;;;;;48.13;31.17;;;19.70;91.70;;;;;;5101319;28;20448;-83
2021/07/14 12:13:49;;;;;;;47.22;30.15;;;19.70;91.70;;;;;;5086650;28;20472;-87
2021/07/14 12:16:30;;;;;;;51.38;31.30;;;19.60;91.70;;;;;;5087647;28;20027;-85
2021/07/14 12:18:58;;;;;;;56.83;34.85;;;19.50;91.80;;;;;;5103813;28;20051;-85
2021/07/14 12:21:41;;;;;;;45.22;29.83;;;19.50;91.80;;;;;;5098740;28;20044;-83
2021/07/14 12:24:32;;;;;;;49.92;32.20;;;19.40;91.90;;;;;;5078452;28;20035;-83
2021/07/14 12:27:27;;;;;;;48.88;30.77;;;19.30;92.00;;;;;;5101485;28;20028;-82
2021/07/14 12:30:02;;;;;;;50.72;31.65;;;19.30;92.10;;;;;;5090429;28;20067;-89
2021/07/14 12:32:52;;;;;;;53.35;31.90;;;19.30;92.20;;;;;;5099352;28;20052;-85
2021/07/14 12:35:23;;;;;;;48.72;29.45;;;19.30;92.20;;;;;;5099020;28;20042;-83
2021/07/14 12:37:52;;;;;;;53.35;34.53;;;19.30;92.20;;;;;;5096428;28;20028;-84
2021/07/14 12:40:39;;;;;;;57.35;33.90;;;19.30;92.20;;;;;;5095765;28;20030;-85
2021/07/14 12:43:13;;;;;;;48.88;29.70;;;19.30;92.30;;;;;;5097724;28;20123;-85
2021/07/14 12:45:40;;;;;;;53.90;31.27;;;19.30;92.30;;;;;;5095365;28;20028;-83
2021/07/14 12:48:12;;;;;;;50.53;32.35;;;19.30;92.40;;;;;;5098675;28;20056;-81